Time;durP1;ratioP1;P1;durP2;ratioP2;P2;SDS_P1;SDS_P2;PMS_P1;PMS_P2;Temp;Humidity;BMP_temperature;BMP_pressure;BME280_temperature;BME280_humidity;BME280_pressure;Samples;Min_cycle;Max_cycle;Signal;HPM_P1;HPM_P2
2022/11/26 00:00:01;;;;;;;22.47;5.90;;;;;5.00;94842.00;;;;7397994;19;20145;-78
2022/11/26 00:02:35;;;;;;;17.83;5.40;;;;;5.00;94840.00;;;;7401270;19;20112;-78
2022/11/26 00:05:03;;;;;;;23.13;4.90;;;;;5.10;94843.00;;;;7399998;19;20149;-78
2022/11/26 00:07:32;;;;;;;13.87;4.83;;;;;4.90;94832.00;;;;7400390;19;20154;-78
2022/11/26 00:10:23;;;;;;;18.97;4.90;;;;;4.80;94848.00;;;;7398892;19;20172;-78
2022/11/26 00:12:50;;;;;;;18.47;4.30;;;;;4.70;94847.00;;;;7396753;19;20196;-78
2022/11/26 00:15:30;;;;;;;18.07;4.57;;;;;5.00;94850.00;;;;7399551;19;20173;-78
2022/11/26 00:17:57;;;;;;;18.17;4.47;;;;;4.90;94861.00;;;;7398917;19;20157;-78
2022/11/26 00:20:32;;;;;;;18.53;4.00;;;;;5.00;94855.00;;;;7399728;19;20659;-77
2022/11/26 00:23:03;;;;;;;21.23;4.67;;;;;5.00;94861.00;;;;7400988;19;20135;-77
2022/11/26 00:25:44;;;;;;;15.60;4.27;;;;;4.80;94867.00;;;;7399386;19;20133;-78
2022/11/26 00:28:37;;;;;;;17.33;4.00;;;;;4.80;94861.00;;;;7399506;19;20600;-77
2022/11/26 00:31:13;;;;;;;15.03;4.10;;;;;5.00;94868.00;;;;7399291;19;20211;-79
2022/11/26 00:33:47;;;;;;;18.27;4.03;;;;;4.80;94863.00;;;;7399168;19;20672;-77
2022/11/26 00:36:30;;;;;;;19.83;4.43;;;;;4.60;94876.00;;;;7400391;19;20125;-78
2022/11/26 00:39:17;;;;;;;7.30;3.53;;;;;4.70;94874.00;;;;7398133;19;20608;-78
2022/11/26 00:41:52;;;;;;;11.97;3.63;;;;;4.70;94880.00;;;;7398489;19;20584;-78
2022/11/26 00:44:25;;;;;;;17.67;3.87;;;;;4.60;94877.00;;;;7398264;19;20165;-77
2022/11/26 00:46:53;;;;;;;14.73;3.70;;;;;4.50;94885.00;;;;7399051;19;20537;-78
2022/11/26 00:49:21;;;;;;;19.53;4.13;;;;;4.70;94882.00;;;;7398995;19;20604;-78
2022/11/26 00:51:55;;;;;;;11.93;3.67;;;;;4.70;94897.00;;;;7399055;19;20544;-78
2022/11/26 00:54:23;;;;;;;9.37;3.53;;;;;4.80;94891.00;;;;7399209;19;20125;-79
2022/11/26 00:56:51;;;;;;;19.87;4.67;;;;;4.50;94906.00;;;;7398430;19;20608;-78
2022/11/26 00:59:25;;;;;;;16.73;4.07;;;;;4.80;94903.00;;;;7398157;19;20120;-78
2022/11/26 01:01:53;;;;;;;11.77;4.20;;;;;4.60;94905.00;;;;7399093;19;20149;-78
2022/11/26 01:04:21;;;;;;;14.83;3.43;;;;;4.50;94909.00;;;;7400135;19;20125;-78
2022/11/26 01:06:55;;;;;;;14.70;5.20;;;;;4.50;94908.00;;;;7399770;19;20583;-78
2022/11/26 01:09:29;;;;;;;21.90;4.67;;;;;4.50;94912.00;;;;7398287;19;20181;-78
2022/11/26 01:12:20;;;;;;;20.50;4.93;;;;;4.30;94925.00;;;;7398088;19;20121;-78
2022/11/26 01:14:47;;;;;;;16.97;4.57;;;;;4.30;94922.00;;;;7396133;19;20592;-78
2022/11/26 01:17:21;;;;;;;13.93;4.17;;;;;4.40;94931.00;;;;7397817;19;20545;-78
2022/11/26 01:19:49;;;;;;;23.40;6.40;;;;;4.40;94926.00;;;;7397177;19;20149;-78
2022/11/26 01:22:21;;;;;;;15.60;5.43;;;;;4.30;94923.00;;;;7398701;19;20131;-78
2022/11/26 01:24:55;;;;;;;28.77;6.43;;;;;4.30;94932.00;;;;7397904;19;20199;-78
2022/11/26 01:27:22;;;;;;;21.20;6.10;;;;;4.60;94948.00;;;;7398072;19;20483;-78
2022/11/26 01:29:50;;;;;;;18.80;6.17;;;;;4.60;94940.00;;;;7398871;19;20503;-78
2022/11/26 01:32:24;;;;;;;19.83;6.83;;;;;4.70;94938.00;;;;7397260;19;20542;-78
2022/11/26 01:34:56;;;;;;;20.30;7.00;;;;;4.60;94935.00;;;;7399588;19;20133;-78
2022/11/26 01:37:24;;;;;;;30.17;6.83;;;;;4.70;94952.00;;;;7397944;19;20631;-78
2022/11/26 01:39:57;;;;;;;28.73;7.17;;;;;4.80;94956.00;;;;7395619;19;20652;-78
2022/11/26 01:42:40;;;;;;;21.77;7.37;;;;;4.70;94950.00;;;;7397151;19;20555;-78
2022/11/26 01:45:21;;;;;;;40.60;7.67;;;;;4.80;94961.00;;;;7397648;19;20156;-78
2022/11/26 01:47:49;;;;;;;23.57;7.93;;;;;4.70;94954.00;;;;7397535;19;20179;-78
2022/11/26 01:50:35;;;;;;;21.27;8.13;;;;;4.70;94965.00;;;;7396483;19;20164;-77
2022/11/26 01:53:05;;;;;;;24.97;8.07;;;;;4.70;94974.00;;;;7399510;19;20125;-78
2022/11/26 01:55:46;;;;;;;21.17;7.50;;;;;4.80;94972.00;;;;7405132;19;20473;-77
2022/11/26 01:58:18;;;;;;;28.83;8.33;;;;;4.70;94972.00;;;;7404326;19;20144;-78
2022/11/26 02:00:52;;;;;;;19.63;7.90;;;;;4.70;94972.00;;;;7405792;19;20132;-78
2022/11/26 02:03:20;;;;;;;21.63;8.37;;;;;4.70;94974.00;;;;7404618;19;20144;-78
2022/11/26 02:06:04;;;;;;;28.77;7.63;;;;;4.60;94968.00;;;;7404862;19;20145;-78
2022/11/26 02:08:37;;;;;;;19.83;7.77;;;;;4.80;94975.00;;;;7404080;19;20144;-78
2022/11/26 02:11:28;;;;;;;28.13;8.03;;;;;4.80;94969.00;;;;7399229;19;20631;-77
2022/11/26 02:14:35;;;;;;;25.90;6.87;;;;;5.00;94973.00;;;;7403089;19;20148;-77
2022/11/26 02:17:18;;;;;;;26.97;7.03;;;;;4.80;94970.00;;;;7403956;19;20604;-78
2022/11/26 02:20:37;;;;;;;21.33;7.10;;;;;4.70;94983.00;;;;7403738;19;20143;-77
2022/11/26 02:23:16;;;;;;;22.57;7.10;;;;;4.70;94989.00;;;;7402515;19;20477;-78
2022/11/26 02:26:21;;;;;;;18.93;7.70;;;;;4.70;94990.00;;;;7404882;19;20533;-78
2022/11/26 02:29:13;;;;;;;29.50;8.03;;;;;4.90;94993.00;;;;7404173;19;20129;-78
2022/11/26 02:31:50;;;;;;;22.30;7.60;;;;;4.70;95001.00;;;;7405068;19;20135;-77
2022/11/26 02:34:34;;;;;;;20.07;6.50;;;;;4.80;95011.00;;;;7403848;19;20483;-78
2022/11/26 02:37:32;;;;;;;26.63;7.23;;;;;4.70;95000.00;;;;7404670;19;20477;-77
2022/11/26 02:40:00;;;;;;;16.23;7.20;;;;;4.70;95000.00;;;;7401239;19;20140;-78
2022/11/26 02:42:35;;;;;;;27.90;8.07;;;;;4.90;95002.00;;;;7403033;19;20150;-78
2022/11/26 02:45:29;;;;;;;20.57;6.97;;;;;4.90;95005.00;;;;7403230;19;20140;-78
2022/11/26 02:48:05;;;;;;;25.03;8.13;;;;;4.90;95016.00;;;;7402611;19;20489;-77
2022/11/26 02:50:38;;;;;;;19.00;8.60;;;;;5.20;95013.00;;;;7404840;19;20141;-77
2022/11/26 02:53:14;;;;;;;20.87;8.33;;;;;4.90;95013.00;;;;7402872;19;20611;-78
2022/11/26 02:55:47;;;;;;;24.53;9.40;;;;;4.90;95015.00;;;;7403123;19;20161;-76
2022/11/26 02:58:20;;;;;;;32.93;9.77;;;;;5.00;95030.00;;;;7403752;19;20612;-78
2022/11/26 03:00:49;;;;;;;31.83;9.70;;;;;5.20;95014.00;;;;7401176;19;20192;-78
2022/11/26 03:03:22;;;;;;;20.20;10.13;;;;;5.00;95021.00;;;;7403210;19;20152;-77
2022/11/26 03:06:00;;;;;;;25.90;9.57;;;;;4.90;95025.00;;;;7402135;19;20124;-78
2022/11/26 03:08:30;;;;;;;23.13;8.97;;;;;4.80;95024.00;;;;7405358;19;20125;-77
2022/11/26 03:11:19;;;;;;;31.40;9.90;;;;;4.70;95032.00;;;;7399403;19;20518;-78
2022/11/26 03:13:53;;;;;;;29.33;10.20;;;;;4.90;95026.00;;;;7401833;19;20164;-77
2022/11/26 03:16:29;;;;;;;21.13;8.67;;;;;4.90;95030.00;;;;7404263;19;20131;-77
2022/11/26 03:18:59;;;;;;;21.47;8.63;;;;;4.80;95031.00;;;;7403012;19;20625;-78
2022/11/26 03:21:26;;;;;;;26.43;9.17;;;;;4.70;95025.00;;;;7402377;19;20628;-77
2022/11/26 03:24:00;;;;;;;23.17;9.53;;;;;4.70;95024.00;;;;7401585;19;20134;-77
2022/11/26 03:26:28;;;;;;;32.63;10.10;;;;;4.70;95040.00;;;;7401741;19;20165;-77
2022/11/26 03:28:56;;;;;;;26.63;9.50;;;;;4.70;95035.00;;;;7401944;19;20136;-78
2022/11/26 03:31:29;;;;;;;23.40;9.07;;;;;4.60;95042.00;;;;7401119;19;20161;-77
2022/11/26 03:33:57;;;;;;;25.33;10.23;;;;;4.60;95035.00;;;;7401542;19;20521;-78
2022/11/26 03:36:26;;;;;;;26.47;9.53;;;;;4.60;95041.00;;;;7402029;19;20626;-77
2022/11/26 03:39:00;;;;;;;18.43;9.07;;;;;4.90;95044.00;;;;7400316;19;20169;-77
2022/11/26 03:41:29;;;;;;;24.00;9.73;;;;;4.80;95045.00;;;;7401964;19;20138;-77
2022/11/26 03:43:56;;;;;;;24.53;11.37;;;;;5.00;95044.00;;;;7400744;19;20124;-77
2022/11/26 03:46:31;;;;;;;28.20;10.90;;;;;4.60;95046.00;;;;7401217;19;20683;-77
2022/11/26 03:48:58;;;;;;;30.33;10.90;;;;;4.70;95044.00;;;;7402651;19;20136;-78
2022/11/26 03:51:32;;;;;;;22.63;12.20;;;;;4.70;95050.00;;;;7400655;19;20165;-78
2022/11/26 03:54:09;;;;;;;23.87;11.87;;;;;4.70;95052.00;;;;7402932;19;20192;-78
2022/11/26 03:56:37;;;;;;;23.97;9.90;;;;;4.70;95051.00;;;;7402246;19;20137;-78
2022/11/26 03:59:04;;;;;;;25.87;10.13;;;;;4.80;95052.00;;;;7400875;19;20144;-78
2022/11/26 04:01:38;;;;;;;21.80;10.07;;;;;4.90;95055.00;;;;7401238;19;20135;-77
2022/11/26 04:04:05;;;;;;;19.00;9.60;;;;;5.10;95050.00;;;;7402031;19;20121;-77
2022/11/26 04:06:33;;;;;;;27.30;9.63;;;;;5.00;95048.00;;;;7401267;19;20153;-77
2022/11/26 04:09:07;;;;;;;26.87;9.27;;;;;4.80;95046.00;;;;7400720;19;20149;-77
2022/11/26 04:11:41;;;;;;;24.33;9.20;;;;;4.70;95049.00;;;;7394190;19;20172;-78
2022/11/26 04:14:16;;;;;;;25.53;8.80;;;;;4.70;95056.00;;;;7398102;19;20172;-77
2022/11/26 04:16:44;;;;;;;24.53;9.07;;;;;4.60;95050.00;;;;7400162;19;20548;-77
2022/11/26 04:19:11;;;;;;;29.23;9.17;;;;;4.90;95050.00;;;;7400756;19;20580;-77
2022/11/26 04:21:45;;;;;;;15.80;8.07;;;;;4.70;95057.00;;;;7401058;19;20145;-78
2022/11/26 04:24:14;;;;;;;24.00;9.07;;;;;4.80;95054.00;;;;7399916;19;20140;-78
2022/11/26 04:26:41;;;;;;;25.13;9.07;;;;;4.60;95057.00;;;;7398929;19;20204;-77
2022/11/26 04:29:15;;;;;;;27.33;9.97;;;;;4.60;95058.00;;;;7400856;19;20180;-78
2022/11/26 04:31:42;;;;;;;22.47;9.80;;;;;4.50;95048.00;;;;7399943;19;20132;-78
2022/11/26 04:34:10;;;;;;;28.67;9.33;;;;;4.60;95056.00;;;;7400918;19;20149;-78
2022/11/26 04:36:44;;;;;;;25.20;9.10;;;;;4.40;95064.00;;;;7400599;19;20141;-78
2022/11/26 04:39:11;;;;;;;29.07;10.00;;;;;4.40;95047.00;;;;7398849;19;20532;-77
2022/11/26 04:41:41;;;;;;;22.60;9.30;;;;;4.10;95046.00;;;;7400083;19;20134;-77
2022/11/26 04:44:15;;;;;;;25.03;8.90;;;;;3.90;95055.00;;;;7398928;19;20625;-77
2022/11/26 04:46:43;;;;;;;23.93;9.17;;;;;3.70;95048.00;;;;7399731;19;20609;-78
2022/11/26 04:49:10;;;;;;;36.07;9.80;;;;;3.60;95041.00;;;;7397710;19;20188;-77
2022/11/26 04:51:44;;;;;;;23.53;8.30;;;;;3.40;95052.00;;;;7400263;19;20129;-77
2022/11/26 04:54:12;;;;;;;34.77;9.10;;;;;3.20;95048.00;;;;7397998;19;20629;-77
2022/11/26 04:56:39;;;;;;;27.47;7.87;;;;;3.00;95058.00;;;;7398649;19;20181;-77
2022/11/26 04:59:13;;;;;;;23.03;8.23;;;;;3.00;95056.00;;;;7398250;19;20734;-77
2022/11/26 05:01:41;;;;;;;19.77;8.30;;;;;3.00;95057.00;;;;7396430;19;20592;-77
2022/11/26 05:04:09;;;;;;;26.53;8.80;;;;;2.90;95063.00;;;;7398664;19;20124;-77
2022/11/26 05:06:42;;;;;;;28.17;9.73;;;;;3.00;95064.00;;;;7399836;19;20129;-77
2022/11/26 05:09:10;;;;;;;26.10;9.47;;;;;3.00;95070.00;;;;7394808;19;20159;-77
2022/11/26 05:11:37;;;;;;;28.57;9.60;;;;;3.00;95070.00;;;;7395856;19;20173;-77
2022/11/26 05:14:18;;;;;;;25.60;8.57;;;;;2.60;95065.00;;;;7398367;19;20187;-77
2022/11/26 05:16:46;;;;;;;32.53;9.43;;;;;2.70;95063.00;;;;7399522;19;20128;-77
2022/11/26 05:19:22;;;;;;;30.83;9.40;;;;;2.60;95073.00;;;;7397415;19;20129;-77
2022/11/26 05:21:50;;;;;;;28.47;8.30;;;;;2.40;95076.00;;;;7396564;19;20153;-77
2022/11/26 05:24:19;;;;;;;24.30;7.80;;;;;2.30;95075.00;;;;7399541;19;20579;-77
2022/11/26 05:26:54;;;;;;;24.47;7.67;;;;;2.20;95079.00;;;;7400767;19;20133;-77
2022/11/26 05:29:25;;;;;;;34.70;8.40;;;;;2.40;95073.00;;;;7397148;19;20137;-77
2022/11/26 05:32:00;;;;;;;23.67;7.53;;;;;2.50;95077.00;;;;7399276;19;20121;-77
2022/11/26 05:34:28;;;;;;;22.30;7.47;;;;;2.60;95085.00;;;;7398416;19;20454;-77
2022/11/26 05:36:55;;;;;;;20.10;7.93;;;;;2.50;95086.00;;;;7397650;19;20604;-77
2022/11/26 05:39:29;;;;;;;24.17;7.27;;;;;2.50;95079.00;;;;7399628;19;20125;-77
2022/11/26 05:41:56;;;;;;;22.50;6.90;;;;;2.60;95084.00;;;;7396860;19;20140;-77
2022/11/26 05:44:24;;;;;;;18.20;8.33;;;;;2.60;95076.00;;;;7398634;19;20129;-77
2022/11/26 05:46:58;;;;;;;29.00;7.80;;;;;2.50;95090.00;;;;7398071;19;20146;-77
2022/11/26 05:49:25;;;;;;;24.00;7.27;;;;;2.50;95084.00;;;;7397261;19;20145;-77
2022/11/26 05:51:53;;;;;;;21.53;6.77;;;;;2.40;95091.00;;;;7397350;19;20132;-77
2022/11/26 05:54:27;;;;;;;18.50;6.93;;;;;2.50;95097.00;;;;7396689;19;20129;-77
2022/11/26 05:56:54;;;;;;;23.67;6.97;;;;;2.50;95091.00;;;;7397561;19;20160;-77
2022/11/26 05:59:26;;;;;;;23.00;7.10;;;;;2.60;95098.00;;;;7396815;19;20121;-77
2022/11/26 06:02:01;;;;;;;20.17;7.33;;;;;2.70;95101.00;;;;7395504;19;20200;-77
2022/11/26 06:04:28;;;;;;;18.73;7.00;;;;;2.60;95097.00;;;;7398647;19;20128;-77
2022/11/26 06:06:56;;;;;;;23.20;7.43;;;;;2.60;95096.00;;;;7398426;19;20137;-77
2022/11/26 06:09:36;;;;;;;28.90;7.30;;;;;2.50;95101.00;;;;7396074;19;20588;-77
2022/11/26 06:12:11;;;;;;;23.77;7.60;;;;;2.40;95099.00;;;;7398086;19;20137;-77
2022/11/26 06:14:46;;;;;;;26.90;7.50;;;;;2.50;95098.00;;;;7395292;19;20137;-77
2022/11/26 06:17:14;;;;;;;27.70;6.73;;;;;2.30;95102.00;;;;7396465;19;20145;-77
2022/11/26 06:19:41;;;;;;;18.03;7.00;;;;;2.50;95107.00;;;;7397752;19;20597;-77
2022/11/26 06:22:15;;;;;;;30.53;7.53;;;;;2.30;95102.00;;;;7396338;19;20145;-77
2022/11/26 06:24:44;;;;;;;19.90;6.83;;;;;2.50;95105.00;;;;7396126;19;20144;-77
2022/11/26 06:27:11;;;;;;;21.60;7.53;;;;;2.50;95112.00;;;;7396406;19;20121;-77
2022/11/26 06:29:46;;;;;;;16.67;7.37;;;;;2.40;95111.00;;;;7396605;19;20124;-77
2022/11/26 06:32:15;;;;;;;21.70;6.80;;;;;2.40;95125.00;;;;7395844;19;20137;-77
2022/11/26 06:34:43;;;;;;;23.03;7.60;;;;;2.30;95119.00;;;;7395866;19;20486;-76
2022/11/26 06:37:20;;;;;;;17.80;7.23;;;;;2.50;95120.00;;;;7396362;19;20200;-77
2022/11/26 06:39:50;;;;;;;33.70;7.47;;;;;2.50;95119.00;;;;7394670;19;20125;-77
2022/11/26 06:42:18;;;;;;;23.57;6.60;;;;;2.50;95131.00;;;;7400763;19;20366;-77
2022/11/26 06:44:54;;;;;;;28.43;7.23;;;;;2.60;95138.00;;;;7403634;19;20129;-77
2022/11/26 06:47:26;;;;;;;26.97;7.43;;;;;2.70;95142.00;;;;7403701;19;20577;-77
2022/11/26 06:50:00;;;;;;;20.23;6.73;;;;;2.70;95147.00;;;;7404558;19;20124;-77
2022/11/26 06:52:35;;;;;;;19.77;7.80;;;;;2.80;95149.00;;;;7403073;19;20128;-77
2022/11/26 06:55:10;;;;;;;21.77;7.53;;;;;2.90;95158.00;;;;7404537;19;20136;-77
2022/11/26 06:57:37;;;;;;;21.07;7.67;;;;;3.10;95149.00;;;;7402132;19;20133;-77
2022/11/26 07:00:07;;;;;;;29.50;7.93;;;;;3.20;95154.00;;;;7401298;19;20133;-78
2022/11/26 07:02:42;;;;;;;23.20;7.93;;;;;3.30;95163.00;;;;7404199;19;20607;-77
2022/11/26 07:05:09;;;;;;;24.70;8.13;;;;;3.40;95178.00;;;;7404505;19;20606;-77
2022/11/26 07:07:38;;;;;;;20.73;7.40;;;;;3.50;95173.00;;;;7403257;19;20149;-77
2022/11/26 07:10:19;;;;;;;22.77;8.37;;;;;3.60;95179.00;;;;7402763;19;20197;-76
2022/11/26 07:12:53;;;;;;;16.77;7.47;;;;;3.80;95177.00;;;;7403843;19;20592;-77
2022/11/26 07:15:27;;;;;;;25.47;7.67;;;;;3.80;95178.00;;;;7403073;19;20137;-77
2022/11/26 07:17:56;;;;;;;26.13;8.53;;;;;3.80;95180.00;;;;7405044;19;20208;-76
2022/11/26 07:20:24;;;;;;;21.53;8.37;;;;;3.90;95183.00;;;;7404144;19;20132;-77
2022/11/26 07:23:01;;;;;;;18.60;7.63;;;;;3.80;95182.00;;;;7405001;19;20208;-76
2022/11/26 07:25:30;;;;;;;26.97;8.57;;;;;3.90;95184.00;;;;7402666;19;20135;-77
2022/11/26 07:27:58;;;;;;;19.10;8.00;;;;;4.10;95189.00;;;;7404148;19;20128;-78
2022/11/26 07:30:32;;;;;;;22.37;7.67;;;;;4.10;95186.00;;;;7401449;19;20139;-78
2022/11/26 07:32:59;;;;;;;22.20;8.93;;;;;4.00;95189.00;;;;7400528;19;20129;-77
2022/11/26 07:35:27;;;;;;;30.50;9.23;;;;;3.90;95188.00;;;;7400132;19;20633;-79
2022/11/26 07:38:01;;;;;;;18.60;8.33;;;;;3.70;95204.00;;;;7401720;19;20125;-78
2022/11/26 07:40:28;;;;;;;23.53;8.10;;;;;3.70;95210.00;;;;7401844;19;20656;-77
2022/11/26 07:42:59;;;;;;;28.00;8.50;;;;;3.50;95207.00;;;;7401393;19;20611;-78
2022/11/26 07:45:36;;;;;;;19.60;8.00;;;;;3.50;95213.00;;;;7400773;19;20148;-78
2022/11/26 07:48:04;;;;;;;26.43;8.40;;;;;3.60;95209.00;;;;7402028;19;20588;-78
2022/11/26 07:50:31;;;;;;;28.63;8.20;;;;;3.50;95206.00;;;;7402132;19;20468;-78
2022/11/26 07:53:05;;;;;;;26.20;7.97;;;;;3.60;95216.00;;;;7401290;19;20641;-77
2022/11/26 07:55:33;;;;;;;28.40;7.87;;;;;3.50;95214.00;;;;7402113;19;20306;-77
2022/11/26 07:58:00;;;;;;;33.87;8.97;;;;;3.90;95218.00;;;;7400705;19;20140;-77
2022/11/26 08:00:37;;;;;;;19.37;8.93;;;;;4.20;95220.00;;;;7401082;19;20149;-77
2022/11/26 08:03:06;;;;;;;25.87;7.90;;;;;4.40;95222.00;;;;7401818;19;20632;-77
2022/11/26 08:05:33;;;;;;;24.83;8.63;;;;;4.40;95215.00;;;;7400680;19;20641;-76
2022/11/26 08:08:08;;;;;;;26.20;7.90;;;;;4.70;95213.00;;;;7398222;19;20164;-77
2022/11/26 08:10:42;;;;;;;32.20;7.80;;;;;5.00;95212.00;;;;7400228;19;20132;-77
2022/11/26 08:13:23;;;;;;;20.97;8.10;;;;;5.20;95222.00;;;;7399880;19;20852;-77
2022/11/26 08:15:51;;;;;;;23.10;8.00;;;;;5.30;95214.00;;;;7399644;19;20133;-77
2022/11/26 08:18:25;;;;;;;21.63;7.40;;;;;5.60;95219.00;;;;7399049;19;20148;-77
2022/11/26 08:20:59;;;;;;;18.20;7.43;;;;;5.80;95220.00;;;;7399032;19;20161;-78
2022/11/26 08:23:33;;;;;;;23.33;6.23;;;;;6.10;95218.00;;;;7394198;19;20167;-78
2022/11/26 08:26:10;;;;;;;20.23;6.23;;;;;6.20;95212.00;;;;7394737;19;20125;-78
2022/11/26 08:28:54;;;;;;;18.70;6.47;;;;;6.40;95216.00;;;;7396425;19;20133;-78
2022/11/26 08:31:23;;;;;;;14.37;6.60;;;;;6.60;95210.00;;;;7395666;19;20202;-77
2022/11/26 08:34:02;;;;;;;15.97;5.77;;;;;6.60;95210.00;;;;7398262;19;20152;-77
2022/11/26 08:36:30;;;;;;;11.93;5.30;;;;;6.90;95222.00;;;;7399080;19;20147;-77
2022/11/26 08:38:59;;;;;;;15.47;4.57;;;;;7.30;95215.00;;;;7400508;19;20640;-78
2022/11/26 08:41:33;;;;;;;11.43;4.37;;;;;7.60;95210.00;;;;7397571;19;20501;-77
2022/11/26 08:44:01;;;;;;;11.00;4.30;;;;;7.50;95215.00;;;;7399925;19;20125;-78
2022/11/26 08:46:36;;;;;;;16.83;4.07;;;;;7.80;95213.00;;;;7398094;19;20162;-78
2022/11/26 08:49:15;;;;;;;12.83;3.13;;;;;7.80;95214.00;;;;7398138;19;20144;-78
2022/11/26 08:51:43;;;;;;;9.00;3.10;;;;;8.00;95213.00;;;;7400226;19;20129;-79
2022/11/26 08:54:13;;;;;;;8.20;2.90;;;;;7.40;95219.00;;;;7399013;19;20144;-79
2022/11/26 08:56:47;;;;;;;7.47;2.50;;;;;8.00;95219.00;;;;7398685;19;20184;-79
2022/11/26 08:59:16;;;;;;;9.40;2.30;;;;;8.10;95223.00;;;;7396704;19;20156;-79
2022/11/26 09:01:43;;;;;;;6.93;2.30;;;;;8.50;95220.00;;;;7397982;19;20135;-78
2022/11/26 09:04:17;;;;;;;11.90;2.70;;;;;8.40;95217.00;;;;7396504;19;20172;-77
2022/11/26 09:06:45;;;;;;;6.17;2.40;;;;;8.00;95213.00;;;;7399329;19;20498;-77
2022/11/26 09:09:12;;;;;;;9.23;2.58;;;;;8.00;95215.00;;;;7397624;19;20607;-77
2022/11/26 09:12:04;;;;;;;10.88;2.70;;;;;7.80;95219.00;;;;7395942;19;20663;-77
2022/11/26 09:14:37;;;;;;;7.18;2.28;;;;;8.10;95223.00;;;;7396282;19;20184;-76
2022/11/26 09:17:12;;;;;;;8.48;2.25;;;;;7.90;95223.00;;;;7394654;19;20152;-76
2022/11/26 09:19:39;;;;;;;5.72;1.83;;;;;8.30;95220.00;;;;7397290;19;20675;-76
2022/11/26 09:22:07;;;;;;;6.50;2.08;;;;;8.10;95214.00;;;;7396283;19;20618;-76
2022/11/26 09:24:40;;;;;;;7.15;2.22;;;;;8.60;95223.00;;;;7398197;19;20133;-76
2022/11/26 09:27:12;;;;;;;9.25;2.47;;;;;9.10;95218.00;;;;7398286;19;20133;-75
2022/11/26 09:29:39;;;;;;;6.45;1.98;;;;;9.20;95235.00;;;;7396924;19;20643;-76
2022/11/26 09:32:13;;;;;;;6.47;2.10;;;;;9.30;95222.00;;;;7397942;19;20160;-75
2022/11/26 09:34:52;;;;;;;5.85;1.92;;;;;9.30;95230.00;;;;7397391;19;20624;-75
2022/11/26 09:37:25;;;;;;;9.38;2.40;;;;;9.40;95226.00;;;;7397623;19;20187;-75
2022/11/26 09:39:53;;;;;;;7.45;2.00;;;;;9.90;95229.00;;;;7396666;19;20177;-75
2022/11/26 09:42:23;;;;;;;8.20;2.40;;;;;9.00;95240.00;;;;7398211;19;20588;-75
2022/11/26 09:45:16;;;;;;;7.05;2.10;;;;;9.20;95233.00;;;;7398232;19;20636;-75
2022/11/26 09:47:47;;;;;;;6.70;1.83;;;;;9.90;95233.00;;;;7396866;19;20132;-75
2022/11/26 09:50:34;;;;;;;6.13;2.00;;;;;10.20;95228.00;;;;7396985;19;20182;-75
2022/11/26 09:53:10;;;;;;;8.40;2.42;;;;;11.20;95236.00;;;;7397595;19;20608;-77
2022/11/26 09:55:48;;;;;;;9.82;2.22;;;;;10.60;95230.00;;;;7398015;19;20489;-76
2022/11/26 09:58:43;;;;;;;7.50;2.25;;;;;10.20;95239.00;;;;7396868;19;20141;-76
2022/11/26 10:01:20;;;;;;;9.48;3.03;;;;;11.30;95236.00;;;;7394768;19;20201;-75
2022/11/26 10:03:49;;;;;;;5.35;2.10;;;;;11.20;95242.00;;;;7396747;19;20618;-76
2022/11/26 10:06:41;;;;;;;6.28;2.28;;;;;11.10;95232.00;;;;7395812;19;20155;-76
2022/11/26 10:09:27;;;;;;;5.75;2.10;;;;;11.40;95232.00;;;;7397281;19;20141;-75
2022/11/26 10:12:35;;;;;;;8.57;2.42;;;;;11.10;95231.00;;;;7394293;19;20176;-76
2022/11/26 10:15:54;;;;;;;5.75;1.88;;;;;12.10;95220.00;;;;7402146;19;20196;-75
2022/11/26 10:18:56;;;;;;;4.50;2.10;;;;;12.00;95221.00;;;;7404233;19;20141;-75
2022/11/26 10:21:37;;;;;;;4.63;2.08;;;;;12.00;95230.00;;;;7404682;19;20157;-75
2022/11/26 10:24:35;;;;;;;7.13;1.90;;;;;12.30;95227.00;;;;7402607;19;20672;-75
2022/11/26 10:27:25;;;;;;;3.92;1.95;;;;;11.90;95226.00;;;;7402511;19;20478;-75
2022/11/26 10:29:58;;;;;;;6.72;1.80;;;;;13.30;95221.00;;;;7403006;19;20248;-75
2022/11/26 10:32:38;;;;;;;5.85;1.92;;;;;12.60;95224.00;;;;7402608;19;20136;-75
2022/11/26 10:35:17;;;;;;;6.38;2.13;;;;;13.20;95226.00;;;;7401343;19;20647;-75
2022/11/26 10:37:53;;;;;;;5.43;1.75;;;;;13.10;95227.00;;;;7404190;19;20132;-75
2022/11/26 10:40:31;;;;;;;4.53;1.85;;;;;12.80;95226.00;;;;7403689;19;20133;-75
2022/11/26 10:43:07;;;;;;;4.90;1.67;;;;;12.70;95232.00;;;;7402014;19;20192;-75
2022/11/26 10:45:45;;;;;;;9.85;1.60;;;;;12.40;95223.00;;;;7402854;19;20504;-74
2022/11/26 10:48:30;;;;;;;6.22;2.15;;;;;13.20;95220.00;;;;7404426;19;20485;-75
2022/11/26 10:51:15;;;;;;;4.93;1.70;;;;;13.80;95224.00;;;;7404368;19;20137;-75
2022/11/26 10:54:00;;;;;;;7.10;1.63;;;;;13.70;95210.00;;;;7404404;19;20164;-74
2022/11/26 10:56:39;;;;;;;4.85;1.65;;;;;13.40;95221.00;;;;7402684;19;20208;-74
2022/11/26 10:59:28;;;;;;;6.80;2.28;;;;;13.00;95216.00;;;;7402688;19;20160;-74
2022/11/26 11:02:04;;;;;;;5.30;1.88;;;;;14.20;95213.00;;;;7400361;19;20132;-75
2022/11/26 11:04:43;;;;;;;4.10;1.55;;;;;13.10;95212.00;;;;7401355;19;20841;-75
2022/11/26 11:07:52;;;;;;;8.32;1.73;;;;;13.90;95215.00;;;;7401937;19;20173;-76
2022/11/26 11:10:34;;;;;;;2.95;1.38;;;;;13.00;95214.00;;;;7393064;19;20168;-74
2022/11/26 11:13:12;;;;;;;10.02;1.65;;;;;13.70;95207.00;;;;7396858;19;20157;-75
2022/11/26 11:15:46;;;;;;;3.03;1.40;;;;;14.40;95216.00;;;;7403305;19;20141;-75
2022/11/26 11:18:22;;;;;;;3.83;1.45;;;;;12.30;95230.00;;;;7402990;19;20144;-75
2022/11/26 11:20:58;;;;;;;13.55;6.95;;;;;10.60;95242.00;;;;7403143;19;20125;-74
2022/11/26 11:23:27;;;;;;;3.55;1.58;;;;;9.90;95237.00;;;;7401131;19;20132;-74
2022/11/26 11:26:23;;;;;;;6.20;1.80;;;;;9.00;95238.00;;;;7402278;19;20588;-75
2022/11/26 11:28:57;;;;;;;3.85;1.50;;;;;9.40;95238.00;;;;7402181;19;20148;-75
2022/11/26 11:31:27;;;;;;;6.90;1.77;;;;;10.20;95219.00;;;;7404914;19;20593;-75
2022/11/26 11:34:22;;;;;;;5.88;1.80;;;;;11.80;95216.00;;;;7403709;19;20580;-74
2022/11/26 11:37:03;;;;;;;9.15;1.80;;;;;11.90;95230.00;;;;7401467;19;20152;-74
2022/11/26 11:39:33;;;;;;;6.53;1.90;;;;;10.90;95215.00;;;;7401753;19;20603;-74
2022/11/26 11:42:27;;;;;;;3.38;1.65;;;;;13.10;95203.00;;;;7400814;19;20161;-74
2022/11/26 11:44:57;;;;;;;7.40;2.08;;;;;13.50;95209.00;;;;7399770;19;20809;-74
2022/11/26 11:47:45;;;;;;;5.85;1.90;;;;;15.10;95205.00;;;;7399672;19;20200;-74
2022/11/26 11:50:32;;;;;;;3.45;1.85;;;;;15.90;95195.00;;;;7397893;19;20156;-75
2022/11/26 11:53:25;;;;;;;4.45;2.10;;;;;16.10;95195.00;;;;7402038;19;20137;-75
2022/11/26 11:56:07;;;;;;;5.82;2.05;;;;;16.40;95202.00;;;;7401893;19;20616;-75
2022/11/26 11:59:12;;;;;;;7.72;3.20;;;;;15.40;95215.00;;;;7397149;19;20602;-75
2022/11/26 12:01:57;;;;;;;6.65;2.30;;;;;13.90;95213.00;;;;7399311;19;20156;-75
2022/11/26 12:04:44;;;;;;;7.93;2.10;;;;;12.50;95205.00;;;;7401175;19;20523;-75
2022/11/26 12:07:23;;;;;;;4.38;2.15;;;;;11.60;95220.00;;;;7400735;19;20133;-75
2022/11/26 12:10:30;;;;;;;6.28;2.38;;;;;10.60;95231.00;;;;7399722;19;20152;-75
2022/11/26 12:13:13;;;;;;;6.63;2.58;;;;;9.80;95228.00;;;;7398490;19;20144;-74
2022/11/26 12:15:58;;;;;;;5.97;2.42;;;;;9.50;95225.00;;;;7398862;19;20548;-75
2022/11/26 12:18:47;;;;;;;7.53;2.67;;;;;9.00;95234.00;;;;7397447;19;20155;-76
2022/11/26 12:21:36;;;;;;;8.35;2.63;;;;;8.70;95230.00;;;;7399155;19;20136;-76
2022/11/26 12:24:15;;;;;;;5.85;2.20;;;;;8.30;95239.00;;;;7397415;19;20167;-76
2022/11/26 12:26:58;;;;;;;5.47;2.53;;;;;8.30;95238.00;;;;7397890;19;20620;-76
2022/11/26 12:29:33;;;;;;;7.07;2.40;;;;;8.30;95239.00;;;;7400765;19;20125;-76
2022/11/26 12:32:25;;;;;;;7.50;2.40;;;;;8.10;95238.00;;;;7398717;19;20152;-76
2022/11/26 12:34:57;;;;;;;7.35;1.90;;;;;8.10;95238.00;;;;7398464;19;20145;-76
2022/11/26 12:37:35;;;;;;;5.18;2.78;;;;;8.10;95239.00;;;;7397499;19;20128;-76
2022/11/26 12:40:30;;;;;;;7.78;2.10;;;;;8.40;95226.00;;;;7399596;19;20132;-75
2022/11/26 12:43:15;;;;;;;5.18;2.35;;;;;10.40;95198.00;;;;7399095;19;20131;-76
2022/11/26 12:45:52;;;;;;;6.75;3.00;;;;;12.70;95192.00;;;;7400609;19;20587;-76
2022/11/26 12:48:53;;;;;;;8.20;2.47;;;;;14.60;95179.00;;;;7397415;19;20148;-75
2022/11/26 12:51:33;;;;;;;6.88;2.00;;;;;15.60;95180.00;;;;7398588;19;20140;-75
2022/11/26 12:54:38;;;;;;;4.88;1.80;;;;;16.10;95181.00;;;;7399044;19;20149;-74
2022/11/26 12:57:27;;;;;;;6.40;2.15;;;;;15.10;95191.00;;;;7399670;19;20129;-75
2022/11/26 13:00:20;;;;;;;5.03;1.50;;;;;13.60;95195.00;;;;7399586;19;20207;-74